In Rescue
 
Open Full Screen Window  High Contrast Mode
Wind Gusting 00 knots
03
February 24, 2020 7:42 PM EST
Present Weather: Light Rain
Weather Information
Wind Direction
  080 °
Wind Speed
  03 kt (3 mph)
Wind Gust
  00 kt (0 mph)
Altimeter
29.88 in
Visibility
10 SM
Temperature
05° C
41° F
Dewpoint
02° C
36° F
Humidity
81%
1hr Rain Fall
00.00 in.
24hr Rain Fall
00.00 in.
Sky Condition
Overcast @ 9,000 ft
Broken @ 3,800 ft
Scattered @ 2,600 ft
VFR

METAR KONZ 250042Z AUTO 08003KT 10SM -RA SCT026 BKN038 OVC090 05/02 A2988 RMK AO2 T00460017

FAA Disclaimer: The data displayed is for advisory purposes only and is not to be used for flight planning or operations.